sensor_id;sensor_type;location;lat;lon;timestamp;temperature;humidity
7606;DHT22;3844;53.360;9.738;2023-02-25T00:00:27;3.60;95.70
7606;DHT22;3844;53.360;9.738;2023-02-25T00:02:30;3.60;95.70
7606;DHT22;3844;53.360;9.738;2023-02-25T00:04:31;3.60;95.70
7606;DHT22;3844;53.360;9.738;2023-02-25T00:06:32;3.60;95.70
7606;DHT22;3844;53.360;9.738;2023-02-25T00:08:33;3.60;95.70
7606;DHT22;3844;53.360;9.738;2023-02-25T00:10:34;3.60;95.70
7606;DHT22;3844;53.360;9.738;2023-02-25T00:12:34;3.70;95.70
7606;DHT22;3844;53.360;9.738;2023-02-25T00:14:35;3.60;95.70
7606;DHT22;3844;53.360;9.738;2023-02-25T00:16:36;3.60;95.70
7606;DHT22;3844;53.360;9.738;2023-02-25T00:18:37;3.60;95.70
7606;DHT22;3844;53.360;9.738;2023-02-25T00:20:40;3.60;95.70
7606;DHT22;3844;53.360;9.738;2023-02-25T00:22:41;3.60;95.70
7606;DHT22;3844;53.360;9.738;2023-02-25T00:24:41;3.60;95.70
7606;DHT22;3844;53.360;9.738;2023-02-25T00:26:43;3.60;95.70
7606;DHT22;3844;53.360;9.738;2023-02-25T00:28:44;3.60;95.70
7606;DHT22;3844;53.360;9.738;2023-02-25T00:32:46;3.50;95.70
7606;DHT22;3844;53.360;9.738;2023-02-25T00:34:46;3.50;95.70
7606;DHT22;3844;53.360;9.738;2023-02-25T00:36:47;3.50;95.70
7606;DHT22;3844;53.360;9.738;2023-02-25T00:38:51;3.50;95.70
7606;DHT22;3844;53.360;9.738;2023-02-25T00:40:52;3.50;95.70
7606;DHT22;3844;53.360;9.738;2023-02-25T00:42:56;3.50;95.70
7606;DHT22;3844;53.360;9.738;2023-02-25T00:44:56;3.50;95.70
7606;DHT22;3844;53.360;9.738;2023-02-25T00:46:57;3.50;95.70
7606;DHT22;3844;53.360;9.738;2023-02-25T00:48:58;3.50;95.70
7606;DHT22;3844;53.360;9.738;2023-02-25T00:51:07;3.50;95.70
7606;DHT22;3844;53.360;9.738;2023-02-25T00:53:08;3.50;95.70
7606;DHT22;3844;53.360;9.738;2023-02-25T00:55:09;3.50;95.70
7606;DHT22;3844;53.360;9.738;2023-02-25T00:57:09;3.50;95.70
7606;DHT22;3844;53.360;9.738;2023-02-25T00:59:10;3.40;95.70
7606;DHT22;3844;53.360;9.738;2023-02-25T01:01:29;3.40;95.70
7606;DHT22;3844;53.360;9.738;2023-02-25T01:03:30;3.40;95.70
7606;DHT22;3844;53.360;9.738;2023-02-25T01:05:31;3.40;95.70
7606;DHT22;3844;53.360;9.738;2023-02-25T01:07:32;3.40;95.70
7606;DHT22;3844;53.360;9.738;2023-02-25T01:09:32;3.40;95.70
7606;DHT22;3844;53.360;9.738;2023-02-25T01:11:34;3.40;95.70
7606;DHT22;3844;53.360;9.738;2023-02-25T01:13:35;3.30;95.70
7606;DHT22;3844;53.360;9.738;2023-02-25T01:15:36;3.30;95.70
7606;DHT22;3844;53.360;9.738;2023-02-25T01:17:37;3.20;95.70
7606;DHT22;3844;53.360;9.738;2023-02-25T01:19:38;3.20;95.70
7606;DHT22;3844;53.360;9.738;2023-02-25T01:21:41;3.20;95.70
7606;DHT22;3844;53.360;9.738;2023-02-25T01:23:46;3.20;95.70
7606;DHT22;3844;53.360;9.738;2023-02-25T01:25:47;3.20;95.70
7606;DHT22;3844;53.360;9.738;2023-02-25T01:27:48;3.20;95.70
7606;DHT22;3844;53.360;9.738;2023-02-25T01:29:49;3.20;95.70
7606;DHT22;3844;53.360;9.738;2023-02-25T01:31:58;3.30;95.70
7606;DHT22;3844;53.360;9.738;2023-02-25T01:34:01;3.30;95.70
7606;DHT22;3844;53.360;9.738;2023-02-25T01:36:04;3.30;95.70
7606;DHT22;3844;53.360;9.738;2023-02-25T01:38:05;3.30;95.70
7606;DHT22;3844;53.360;9.738;2023-02-25T01:40:06;3.30;95.70
7606;DHT22;3844;53.360;9.738;2023-02-25T01:42:13;3.30;95.70
7606;DHT22;3844;53.360;9.738;2023-02-25T01:44:17;3.30;95.70
7606;DHT22;3844;53.360;9.738;2023-02-25T01:46:21;3.30;95.70
7606;DHT22;3844;53.360;9.738;2023-02-25T01:48:23;3.30;95.70
7606;DHT22;3844;53.360;9.738;2023-02-25T01:50:30;3.30;95.70
7606;DHT22;3844;53.360;9.738;2023-02-25T01:52:33;3.30;95.70
7606;DHT22;3844;53.360;9.738;2023-02-25T01:54:35;3.30;95.70
7606;DHT22;3844;53.360;9.738;2023-02-25T01:56:37;3.30;95.70
7606;DHT22;3844;53.360;9.738;2023-02-25T01:58:39;3.30;95.70
7606;DHT22;3844;53.360;9.738;2023-02-25T02:02:44;3.30;95.70
7606;DHT22;3844;53.360;9.738;2023-02-25T02:04:47;3.30;95.70
7606;DHT22;3844;53.360;9.738;2023-02-25T02:06:51;3.30;95.70
7606;DHT22;3844;53.360;9.738;2023-02-25T02:08:53;3.30;95.70
7606;DHT22;3844;53.360;9.738;2023-02-25T02:10:54;3.30;95.70
7606;DHT22;3844;53.360;9.738;2023-02-25T02:12:56;3.30;95.70
7606;DHT22;3844;53.360;9.738;2023-02-25T02:14:59;3.30;95.70
7606;DHT22;3844;53.360;9.738;2023-02-25T02:17:22;3.30;95.70
7606;DHT22;3844;53.360;9.738;2023-02-25T02:27:08;3.20;95.70
7606;DHT22;3844;53.360;9.738;2023-02-25T02:36:48;3.20;95.70
7606;DHT22;3844;53.360;9.738;2023-02-25T02:46:15;3.10;95.70
7606;DHT22;3844;53.360;9.738;2023-02-25T02:50:53;3.10;93.60
7606;DHT22;3844;53.360;9.738;2023-02-25T02:53:10;3.10;93.10
7606;DHT22;3844;53.360;9.738;2023-02-25T02:55:19;3.00;94.20
7606;DHT22;3844;53.360;9.738;2023-02-25T02:57:23;3.00;95.00
7606;DHT22;3844;53.360;9.738;2023-02-25T02:59:36;3.00;93.90
7606;DHT22;3844;53.360;9.738;2023-02-25T03:01:59;3.00;95.10
7606;DHT22;3844;53.360;9.738;2023-02-25T03:04:06;3.00;95.60
7606;DHT22;3844;53.360;9.738;2023-02-25T03:06:10;3.00;95.70
7606;DHT22;3844;53.360;9.738;2023-02-25T03:08:26;3.00;95.70
7606;DHT22;3844;53.360;9.738;2023-02-25T03:10:27;2.90;95.40
7606;DHT22;3844;53.360;9.738;2023-02-25T03:12:28;2.90;95.70
7606;DHT22;3844;53.360;9.738;2023-02-25T03:14:29;2.90;95.70
7606;DHT22;3844;53.360;9.738;2023-02-25T03:16:38;2.90;95.70
7606;DHT22;3844;53.360;9.738;2023-02-25T03:18:54;2.80;95.70
7606;DHT22;3844;53.360;9.738;2023-02-25T03:20:57;2.80;95.70
7606;DHT22;3844;53.360;9.738;2023-02-25T03:23:01;2.80;95.70
7606;DHT22;3844;53.360;9.738;2023-02-25T03:25:09;2.70;95.70
7606;DHT22;3844;53.360;9.738;2023-02-25T03:27:36;2.70;95.70
7606;DHT22;3844;53.360;9.738;2023-02-25T03:31:43;2.60;95.70
7606;DHT22;3844;53.360;9.738;2023-02-25T03:33:52;2.60;95.70
7606;DHT22;3844;53.360;9.738;2023-02-25T03:35:55;2.60;95.70
7606;DHT22;3844;53.360;9.738;2023-02-25T03:38:03;2.50;95.70
7606;DHT22;3844;53.360;9.738;2023-02-25T03:40:08;2.50;95.70
7606;DHT22;3844;53.360;9.738;2023-02-25T03:42:18;2.50;95.70
7606;DHT22;3844;53.360;9.738;2023-02-25T03:44:24;2.50;95.70
7606;DHT22;3844;53.360;9.738;2023-02-25T03:46:29;2.50;95.10
7606;DHT22;3844;53.360;9.738;2023-02-25T03:48:31;2.50;95.50
7606;DHT22;3844;53.360;9.738;2023-02-25T03:50:39;2.50;95.70
7606;DHT22;3844;53.360;9.738;2023-02-25T03:52:41;2.40;95.70
7606;DHT22;3844;53.360;9.738;2023-02-25T03:54:42;2.40;95.70
7606;DHT22;3844;53.360;9.738;2023-02-25T03:56:48;2.40;95.60
7606;DHT22;3844;53.360;9.738;2023-02-25T03:58:49;2.40;95.10
7606;DHT22;3844;53.360;9.738;2023-02-25T04:00:53;2.40;95.70
7606;DHT22;3844;53.360;9.738;2023-02-25T04:02:55;2.40;95.70
7606;DHT22;3844;53.360;9.738;2023-02-25T04:04:56;2.40;95.70
7606;DHT22;3844;53.360;9.738;2023-02-25T04:06:57;2.40;95.70
7606;DHT22;3844;53.360;9.738;2023-02-25T04:08:58;2.40;95.70
7606;DHT22;3844;53.360;9.738;2023-02-25T04:10:58;2.40;95.70
7606;DHT22;3844;53.360;9.738;2023-02-25T04:12:59;2.30;95.70
7606;DHT22;3844;53.360;9.738;2023-02-25T04:15:00;2.30;95.70
7606;DHT22;3844;53.360;9.738;2023-02-25T04:17:01;2.30;95.70
7606;DHT22;3844;53.360;9.738;2023-02-25T04:21:07;2.30;95.70
7606;DHT22;3844;53.360;9.738;2023-02-25T04:23:12;2.30;95.70
7606;DHT22;3844;53.360;9.738;2023-02-25T04:25:13;2.30;95.70
7606;DHT22;3844;53.360;9.738;2023-02-25T04:27:13;2.30;95.70
7606;DHT22;3844;53.360;9.738;2023-02-25T04:31:16;2.30;95.70
7606;DHT22;3844;53.360;9.738;2023-02-25T04:35:17;2.30;95.70
7606;DHT22;3844;53.360;9.738;2023-02-25T04:39:19;2.30;95.70
7606;DHT22;3844;53.360;9.738;2023-02-25T04:41:21;2.30;95.70
7606;DHT22;3844;53.360;9.738;2023-02-25T04:43:21;2.30;95.70
7606;DHT22;3844;53.360;9.738;2023-02-25T04:45:22;2.30;95.70
7606;DHT22;3844;53.360;9.738;2023-02-25T04:47:25;2.30;95.70
7606;DHT22;3844;53.360;9.738;2023-02-25T04:51:26;2.30;95.70
7606;DHT22;3844;53.360;9.738;2023-02-25T04:53:27;2.30;95.70
7606;DHT22;3844;53.360;9.738;2023-02-25T04:55:28;2.30;95.70
7606;DHT22;3844;53.360;9.738;2023-02-25T04:57:29;2.30;95.70
7606;DHT22;3844;53.360;9.738;2023-02-25T04:59:30;2.30;95.70
7606;DHT22;3844;53.360;9.738;2023-02-25T05:01:31;2.30;95.70
7606;DHT22;3844;53.360;9.738;2023-02-25T05:03:32;2.30;95.70
7606;DHT22;3844;53.360;9.738;2023-02-25T05:05:33;2.30;95.70
7606;DHT22;3844;53.360;9.738;2023-02-25T05:07:34;2.30;95.70
7606;DHT22;3844;53.360;9.738;2023-02-25T05:09:34;2.30;95.70
7606;DHT22;3844;53.360;9.738;2023-02-25T05:11:35;2.30;95.70
7606;DHT22;3844;53.360;9.738;2023-02-25T05:13:36;2.30;95.70
7606;DHT22;3844;53.360;9.738;2023-02-25T05:15:37;2.30;95.70
7606;DHT22;3844;53.360;9.738;2023-02-25T05:17:37;2.30;95.70
7606;DHT22;3844;53.360;9.738;2023-02-25T05:19:38;2.30;95.70
7606;DHT22;3844;53.360;9.738;2023-02-25T05:21:39;2.30;95.70
7606;DHT22;3844;53.360;9.738;2023-02-25T05:23:41;2.30;95.70
7606;DHT22;3844;53.360;9.738;2023-02-25T05:25:42;2.30;95.70
7606;DHT22;3844;53.360;9.738;2023-02-25T05:27:43;2.30;95.70
7606;DHT22;3844;53.360;9.738;2023-02-25T05:29:44;2.30;95.70
7606;DHT22;3844;53.360;9.738;2023-02-25T05:31:45;2.30;95.70
7606;DHT22;3844;53.360;9.738;2023-02-25T05:33:46;2.30;95.70
7606;DHT22;3844;53.360;9.738;2023-02-25T05:35:50;2.40;95.70
7606;DHT22;3844;53.360;9.738;2023-02-25T05:37:50;2.40;95.70
7606;DHT22;3844;53.360;9.738;2023-02-25T05:39:51;2.40;95.70
7606;DHT22;3844;53.360;9.738;2023-02-25T05:41:52;2.40;95.70
7606;DHT22;3844;53.360;9.738;2023-02-25T05:43:52;2.40;95.70
7606;DHT22;3844;53.360;9.738;2023-02-25T05:45:55;2.40;95.70
7606;DHT22;3844;53.360;9.738;2023-02-25T05:47:56;2.40;95.70
7606;DHT22;3844;53.360;9.738;2023-02-25T05:49:56;2.40;95.70
7606;DHT22;3844;53.360;9.738;2023-02-25T05:51:57;2.40;95.70
7606;DHT22;3844;53.360;9.738;2023-02-25T05:53:58;2.40;95.70
7606;DHT22;3844;53.360;9.738;2023-02-25T05:56:06;2.40;95.70
7606;DHT22;3844;53.360;9.738;2023-02-25T05:58:07;2.40;95.70
7606;DHT22;3844;53.360;9.738;2023-02-25T06:00:10;2.40;95.70
7606;DHT22;3844;53.360;9.738;2023-02-25T06:02:14;2.40;95.70
7606;DHT22;3844;53.360;9.738;2023-02-25T06:04:15;2.40;95.70
7606;DHT22;3844;53.360;9.738;2023-02-25T06:06:17;2.40;95.70
7606;DHT22;3844;53.360;9.738;2023-02-25T06:08:22;2.40;95.70
7606;DHT22;3844;53.360;9.738;2023-02-25T06:10:24;2.40;95.70
7606;DHT22;3844;53.360;9.738;2023-02-25T06:12:29;2.40;95.70
7606;DHT22;3844;53.360;9.738;2023-02-25T06:14:30;2.40;95.70
7606;DHT22;3844;53.360;9.738;2023-02-25T06:16:30;2.40;95.70
7606;DHT22;3844;53.360;9.738;2023-02-25T06:18:31;2.40;95.70
7606;DHT22;3844;53.360;9.738;2023-02-25T06:20:36;2.40;95.70
7606;DHT22;3844;53.360;9.738;2023-02-25T06:26:40;2.40;95.70
7606;DHT22;3844;53.360;9.738;2023-02-25T06:28:42;2.40;95.70
7606;DHT22;3844;53.360;9.738;2023-02-25T06:30:42;2.40;95.70
7606;DHT22;3844;53.360;9.738;2023-02-25T06:32:43;2.40;95.70
7606;DHT22;3844;53.360;9.738;2023-02-25T06:34:44;2.40;95.70
7606;DHT22;3844;53.360;9.738;2023-02-25T06:36:45;2.40;95.70
7606;DHT22;3844;53.360;9.738;2023-02-25T06:38:46;2.50;95.70
7606;DHT22;3844;53.360;9.738;2023-02-25T06:40:47;2.50;95.70
7606;DHT22;3844;53.360;9.738;2023-02-25T06:48:52;2.40;95.70
7606;DHT22;3844;53.360;9.738;2023-02-25T06:52:56;2.40;95.70
7606;DHT22;3844;53.360;9.738;2023-02-25T06:54:57;2.40;95.70
7606;DHT22;3844;53.360;9.738;2023-02-25T06:56:58;2.40;95.70
7606;DHT22;3844;53.360;9.738;2023-02-25T06:59:00;2.30;95.70
7606;DHT22;3844;53.360;9.738;2023-02-25T07:01:07;2.30;95.70
7606;DHT22;3844;53.360;9.738;2023-02-25T07:03:12;2.30;95.70
7606;DHT22;3844;53.360;9.738;2023-02-25T07:05:13;2.30;95.70
7606;DHT22;3844;53.360;9.738;2023-02-25T07:07:13;2.30;95.70
7606;DHT22;3844;53.360;9.738;2023-02-25T07:09:14;2.30;95.70
7606;DHT22;3844;53.360;9.738;2023-02-25T07:13:18;2.20;95.70
7606;DHT22;3844;53.360;9.738;2023-02-25T07:15:20;2.20;95.70
7606;DHT22;3844;53.360;9.738;2023-02-25T07:19:21;2.20;95.70
7606;DHT22;3844;53.360;9.738;2023-02-25T07:21:23;2.30;95.70
7606;DHT22;3844;53.360;9.738;2023-02-25T07:25:31;2.20;95.70
7606;DHT22;3844;53.360;9.738;2023-02-25T07:27:32;2.20;95.70
7606;DHT22;3844;53.360;9.738;2023-02-25T07:29:32;2.20;95.70
7606;DHT22;3844;53.360;9.738;2023-02-25T07:33:37;2.20;95.70
7606;DHT22;3844;53.360;9.738;2023-02-25T07:35:40;2.20;95.70
7606;DHT22;3844;53.360;9.738;2023-02-25T07:37:41;2.20;95.70
7606;DHT22;3844;53.360;9.738;2023-02-25T07:41:43;2.20;95.70
7606;DHT22;3844;53.360;9.738;2023-02-25T07:43:44;2.20;95.70
7606;DHT22;3844;53.360;9.738;2023-02-25T07:45:48;2.20;95.70
7606;DHT22;3844;53.360;9.738;2023-02-25T07:47:52;2.30;95.70
7606;DHT22;3844;53.360;9.738;2023-02-25T07:49:52;2.30;95.70
7606;DHT22;3844;53.360;9.738;2023-02-25T07:51:53;2.30;95.70
7606;DHT22;3844;53.360;9.738;2023-02-25T07:53:55;2.30;95.70
7606;DHT22;3844;53.360;9.738;2023-02-25T07:55:56;2.30;95.70
7606;DHT22;3844;53.360;9.738;2023-02-25T07:57:57;2.30;95.70
7606;DHT22;3844;53.360;9.738;2023-02-25T07:59:58;2.40;95.70
7606;DHT22;3844;53.360;9.738;2023-02-25T08:01:59;2.40;95.70
7606;DHT22;3844;53.360;9.738;2023-02-25T08:04:02;2.50;95.70
7606;DHT22;3844;53.360;9.738;2023-02-25T08:06:04;2.50;95.70
7606;DHT22;3844;53.360;9.738;2023-02-25T08:08:07;2.50;95.70
7606;DHT22;3844;53.360;9.738;2023-02-25T08:10:08;2.60;95.70
7606;DHT22;3844;53.360;9.738;2023-02-25T08:12:09;2.60;95.70
7606;DHT22;3844;53.360;9.738;2023-02-25T08:14:10;2.60;95.70
7606;DHT22;3844;53.360;9.738;2023-02-25T08:16:13;2.70;95.70
7606;DHT22;3844;53.360;9.738;2023-02-25T08:18:14;2.70;95.70
7606;DHT22;3844;53.360;9.738;2023-02-25T08:20:15;2.70;94.90
7606;DHT22;3844;53.360;9.738;2023-02-25T08:22:16;2.70;94.30
7606;DHT22;3844;53.360;9.738;2023-02-25T08:24:17;2.80;91.70
7606;DHT22;3844;53.360;9.738;2023-02-25T08:26:20;2.80;89.50
7606;DHT22;3844;53.360;9.738;2023-02-25T08:28:22;2.80;89.80
7606;DHT22;3844;53.360;9.738;2023-02-25T08:30:23;2.90;89.30
7606;DHT22;3844;53.360;9.738;2023-02-25T08:34:26;3.00;87.80
7606;DHT22;3844;53.360;9.738;2023-02-25T08:36:28;3.00;86.80
7606;DHT22;3844;53.360;9.738;2023-02-25T08:38:30;3.10;87.10
7606;DHT22;3844;53.360;9.738;2023-02-25T08:40:31;3.10;88.40
7606;DHT22;3844;53.360;9.738;2023-02-25T08:42:32;3.10;86.90
7606;DHT22;3844;53.360;9.738;2023-02-25T08:44:33;3.10;85.70
7606;DHT22;3844;53.360;9.738;2023-02-25T08:46:33;3.10;86.70
7606;DHT22;3844;53.360;9.738;2023-02-25T08:48:35;3.10;86.00
7606;DHT22;3844;53.360;9.738;2023-02-25T08:50:36;3.10;85.70
7606;DHT22;3844;53.360;9.738;2023-02-25T08:52:36;3.10;86.00
7606;DHT22;3844;53.360;9.738;2023-02-25T08:54:40;3.20;86.20
7606;DHT22;3844;53.360;9.738;2023-02-25T08:56:41;3.30;86.20
7606;DHT22;3844;53.360;9.738;2023-02-25T08:58:43;3.30;86.50
7606;DHT22;3844;53.360;9.738;2023-02-25T09:00:44;3.40;84.90
7606;DHT22;3844;53.360;9.738;2023-02-25T09:02:46;3.40;85.00
7606;DHT22;3844;53.360;9.738;2023-02-25T09:04:47;3.40;84.10
7606;DHT22;3844;53.360;9.738;2023-02-25T09:06:49;3.40;84.20
7606;DHT22;3844;53.360;9.738;2023-02-25T09:08:51;3.40;84.60
7606;DHT22;3844;53.360;9.738;2023-02-25T09:10:52;3.40;84.20
7606;DHT22;3844;53.360;9.738;2023-02-25T09:12:53;3.40;84.60
7606;DHT22;3844;53.360;9.738;2023-02-25T09:14:54;3.50;84.10
7606;DHT22;3844;53.360;9.738;2023-02-25T09:16:54;3.40;83.10
7606;DHT22;3844;53.360;9.738;2023-02-25T09:18:55;3.40;83.10
7606;DHT22;3844;53.360;9.738;2023-02-25T09:20:56;3.40;83.60
7606;DHT22;3844;53.360;9.738;2023-02-25T09:22:57;3.50;83.90
7606;DHT22;3844;53.360;9.738;2023-02-25T09:24:59;3.80;83.30
7606;DHT22;3844;53.360;9.738;2023-02-25T09:27:02;3.90;81.90
7606;DHT22;3844;53.360;9.738;2023-02-25T09:29:07;4.00;81.80
7606;DHT22;3844;53.360;9.738;2023-02-25T09:31:08;4.10;80.90
7606;DHT22;3844;53.360;9.738;2023-02-25T09:33:09;4.10;79.60
7606;DHT22;3844;53.360;9.738;2023-02-25T09:35:10;4.00;81.40
7606;DHT22;3844;53.360;9.738;2023-02-25T09:37:11;3.90;80.20
7606;DHT22;3844;53.360;9.738;2023-02-25T09:39:13;3.90;80.30
7606;DHT22;3844;53.360;9.738;2023-02-25T09:43:40;3.80;80.60
7606;DHT22;3844;53.360;9.738;2023-02-25T09:45:42;3.70;80.90
7606;DHT22;3844;53.360;9.738;2023-02-25T09:47:51;3.80;80.90
7606;DHT22;3844;53.360;9.738;2023-02-25T09:50:23;3.80;81.10
7606;DHT22;3844;53.360;9.738;2023-02-25T09:52:43;4.00;81.40
7606;DHT22;3844;53.360;9.738;2023-02-25T09:54:47;4.30;80.10
7606;DHT22;3844;53.360;9.738;2023-02-25T09:58:53;4.70;78.80
7606;DHT22;3844;53.360;9.738;2023-02-25T10:03:20;4.90;77.60
7606;DHT22;3844;53.360;9.738;2023-02-25T10:05:43;4.90;76.30
7606;DHT22;3844;53.360;9.738;2023-02-25T10:10:12;4.90;77.40
7606;DHT22;3844;53.360;9.738;2023-02-25T10:15:23;5.00;75.60
7606;DHT22;3844;53.360;9.738;2023-02-25T10:17:59;4.90;75.50
7606;DHT22;3844;53.360;9.738;2023-02-25T10:22:44;4.60;76.60
7606;DHT22;3844;53.360;9.738;2023-02-25T10:25:10;4.60;76.80
7606;DHT22;3844;53.360;9.738;2023-02-25T10:29:29;4.70;77.50
7606;DHT22;3844;53.360;9.738;2023-02-25T10:31:32;4.90;77.00
7606;DHT22;3844;53.360;9.738;2023-02-25T10:33:36;5.50;77.30
7606;DHT22;3844;53.360;9.738;2023-02-25T10:35:38;5.80;73.80
7606;DHT22;3844;53.360;9.738;2023-02-25T10:37:40;5.80;72.70
7606;DHT22;3844;53.360;9.738;2023-02-25T10:39:41;5.70;72.60
7606;DHT22;3844;53.360;9.738;2023-02-25T10:41:42;5.60;72.30
7606;DHT22;3844;53.360;9.738;2023-02-25T10:43:46;5.30;71.10
7606;DHT22;3844;53.360;9.738;2023-02-25T10:46:01;5.00;72.50
7606;DHT22;3844;53.360;9.738;2023-02-25T10:48:06;4.80;74.00
7606;DHT22;3844;53.360;9.738;2023-02-25T10:50:21;4.60;73.60
7606;DHT22;3844;53.360;9.738;2023-02-25T10:52:22;4.50;74.70
7606;DHT22;3844;53.360;9.738;2023-02-25T10:54:23;4.40;74.40
7606;DHT22;3844;53.360;9.738;2023-02-25T10:56:40;4.30;75.20
7606;DHT22;3844;53.360;9.738;2023-02-25T10:58:59;4.20;75.20
7606;DHT22;3844;53.360;9.738;2023-02-25T11:01:13;4.10;75.10
7606;DHT22;3844;53.360;9.738;2023-02-25T11:03:20;4.10;76.40
7606;DHT22;3844;53.360;9.738;2023-02-25T11:05:49;4.10;75.40
7606;DHT22;3844;53.360;9.738;2023-02-25T11:07:50;3.90;76.40
7606;DHT22;3844;53.360;9.738;2023-02-25T11:10:15;3.90;77.60
7606;DHT22;3844;53.360;9.738;2023-02-25T11:12:17;3.80;77.10
7606;DHT22;3844;53.360;9.738;2023-02-25T11:14:31;3.80;77.60
7606;DHT22;3844;53.360;9.738;2023-02-25T11:16:36;3.80;78.20
7606;DHT22;3844;53.360;9.738;2023-02-25T11:18:40;3.80;77.70
7606;DHT22;3844;53.360;9.738;2023-02-25T11:20:51;3.70;77.10
7606;DHT22;3844;53.360;9.738;2023-02-25T11:22:55;3.60;77.70
7606;DHT22;3844;53.360;9.738;2023-02-25T11:25:19;3.50;78.10
7606;DHT22;3844;53.360;9.738;2023-02-25T11:27:35;3.50;78.60
7606;DHT22;3844;53.360;9.738;2023-02-25T11:29:39;3.60;80.10
7606;DHT22;3844;53.360;9.738;2023-02-25T11:31:42;3.70;79.00
7606;DHT22;3844;53.360;9.738;2023-02-25T11:33:48;4.00;79.80
7606;DHT22;3844;53.360;9.738;2023-02-25T11:35:55;4.40;77.60
7606;DHT22;3844;53.360;9.738;2023-02-25T11:37:57;4.50;76.50
7606;DHT22;3844;53.360;9.738;2023-02-25T11:39:59;4.70;77.30
7606;DHT22;3844;53.360;9.738;2023-02-25T11:42:20;4.80;76.60
7606;DHT22;3844;53.360;9.738;2023-02-25T11:44:44;5.10;76.00
7606;DHT22;3844;53.360;9.738;2023-02-25T11:47:06;5.20;75.10
7606;DHT22;3844;53.360;9.738;2023-02-25T11:51:54;5.00;74.30
7606;DHT22;3844;53.360;9.738;2023-02-25T11:54:12;5.10;74.10
7606;DHT22;3844;53.360;9.738;2023-02-25T11:56:38;5.10;75.80
7606;DHT22;3844;53.360;9.738;2023-02-25T12:01:43;5.90;72.30
7606;DHT22;3844;53.360;9.738;2023-02-25T12:08:42;6.20;72.00
7606;DHT22;3844;53.360;9.738;2023-02-25T12:11:25;6.60;70.20
7606;DHT22;3844;53.360;9.738;2023-02-25T12:41:46;7.10;66.30
7606;DHT22;3844;53.360;9.738;2023-02-25T12:55:39;7.40;64.60
7606;DHT22;3844;53.360;9.738;2023-02-25T12:57:45;7.80;60.70
7606;DHT22;3844;53.360;9.738;2023-02-25T13:02:35;8.20;61.40
7606;DHT22;3844;53.360;9.738;2023-02-25T13:07:33;8.60;60.30
7606;DHT22;3844;53.360;9.738;2023-02-25T13:09:53;8.70;59.50
7606;DHT22;3844;53.360;9.738;2023-02-25T13:21:54;7.40;61.60
7606;DHT22;3844;53.360;9.738;2023-02-25T13:26:49;7.50;60.60
7606;DHT22;3844;53.360;9.738;2023-02-25T13:29:13;7.60;59.00
7606;DHT22;3844;53.360;9.738;2023-02-25T13:38:36;8.60;59.00
7606;DHT22;3844;53.360;9.738;2023-02-25T13:46:26;9.20;55.40
7606;DHT22;3844;53.360;9.738;2023-02-25T13:48:40;8.80;57.50
7606;DHT22;3844;53.360;9.738;2023-02-25T14:07:25;8.30;57.70
7606;DHT22;3844;53.360;9.738;2023-02-25T14:16:51;8.20;57.50
7606;DHT22;3844;53.360;9.738;2023-02-25T14:21:17;7.50;59.30
7606;DHT22;3844;53.360;9.738;2023-02-25T14:24:02;7.20;60.50
7606;DHT22;3844;53.360;9.738;2023-02-25T14:31:19;7.10;61.20
7606;DHT22;3844;53.360;9.738;2023-02-25T14:38:12;6.90;60.50
7606;DHT22;3844;53.360;9.738;2023-02-25T14:47:13;5.90;63.90
7606;DHT22;3844;53.360;9.738;2023-02-25T14:49:31;5.80;63.30
7606;DHT22;3844;53.360;9.738;2023-02-25T14:57:22;5.60;65.70
7606;DHT22;3844;53.360;9.738;2023-02-25T15:06:27;5.10;64.90
7606;DHT22;3844;53.360;9.738;2023-02-25T15:08:44;5.10;64.90
7606;DHT22;3844;53.360;9.738;2023-02-25T15:18:09;4.50;66.30
7606;DHT22;3844;53.360;9.738;2023-02-25T15:20:35;4.50;65.00
7606;DHT22;3844;53.360;9.738;2023-02-25T15:31:35;4.80;64.90
7606;DHT22;3844;53.360;9.738;2023-02-25T15:33:43;4.80;64.60
7606;DHT22;3844;53.360;9.738;2023-02-25T15:42:45;4.20;67.80
7606;DHT22;3844;53.360;9.738;2023-02-25T15:44:47;4.00;68.80
7606;DHT22;3844;53.360;9.738;2023-02-25T15:46:49;3.90;69.80
7606;DHT22;3844;53.360;9.738;2023-02-25T15:53:41;3.70;71.20
7606;DHT22;3844;53.360;9.738;2023-02-25T15:55:44;3.60;71.60
7606;DHT22;3844;53.360;9.738;2023-02-25T15:57:45;3.60;71.70
7606;DHT22;3844;53.360;9.738;2023-02-25T15:59:48;3.60;72.60
7606;DHT22;3844;53.360;9.738;2023-02-25T16:01:49;3.50;72.80
7606;DHT22;3844;53.360;9.738;2023-02-25T16:03:50;3.60;72.80
7606;DHT22;3844;53.360;9.738;2023-02-25T16:05:52;3.70;72.70
7606;DHT22;3844;53.360;9.738;2023-02-25T16:08:21;3.80;72.20
7606;DHT22;3844;53.360;9.738;2023-02-25T16:10:34;3.90;72.30
7606;DHT22;3844;53.360;9.738;2023-02-25T16:12:42;3.80;72.10
7606;DHT22;3844;53.360;9.738;2023-02-25T16:14:43;3.70;72.70
7606;DHT22;3844;53.360;9.738;2023-02-25T16:17:33;3.60;73.10
7606;DHT22;3844;53.360;9.738;2023-02-25T16:19:36;3.40;72.90
7606;DHT22;3844;53.360;9.738;2023-02-25T16:21:48;3.40;73.10
7606;DHT22;3844;53.360;9.738;2023-02-25T16:23:52;3.30;73.20
7606;DHT22;3844;53.360;9.738;2023-02-25T16:26:10;3.20;73.80
7606;DHT22;3844;53.360;9.738;2023-02-25T16:28:43;3.20;73.60
7606;DHT22;3844;53.360;9.738;2023-02-25T16:31:35;3.00;73.70
7606;DHT22;3844;53.360;9.738;2023-02-25T16:40:03;2.70;74.50
7606;DHT22;3844;53.360;9.738;2023-02-25T16:42:11;2.60;74.50
7606;DHT22;3844;53.360;9.738;2023-02-25T16:44:24;2.50;75.20
7606;DHT22;3844;53.360;9.738;2023-02-25T16:46:34;2.40;75.00
7606;DHT22;3844;53.360;9.738;2023-02-25T16:48:59;2.40;75.20
7606;DHT22;3844;53.360;9.738;2023-02-25T16:51:09;2.30;75.50
7606;DHT22;3844;53.360;9.738;2023-02-25T16:53:17;2.30;75.80
7606;DHT22;3844;53.360;9.738;2023-02-25T16:55:24;2.20;75.70
7606;DHT22;3844;53.360;9.738;2023-02-25T16:57:29;2.10;75.60
7606;DHT22;3844;53.360;9.738;2023-02-25T16:59:32;2.10;75.50
7606;DHT22;3844;53.360;9.738;2023-02-25T17:01:35;2.00;76.10
7606;DHT22;3844;53.360;9.738;2023-02-25T17:03:44;1.90;76.10
7606;DHT22;3844;53.360;9.738;2023-02-25T17:06:04;1.90;76.20
7606;DHT22;3844;53.360;9.738;2023-02-25T17:08:13;1.80;76.50
7606;DHT22;3844;53.360;9.738;2023-02-25T17:10:23;1.70;76.70
7606;DHT22;3844;53.360;9.738;2023-02-25T17:12:37;1.70;76.80
7606;DHT22;3844;53.360;9.738;2023-02-25T17:14:43;1.60;77.00
7606;DHT22;3844;53.360;9.738;2023-02-25T17:16:48;1.50;77.20
7606;DHT22;3844;53.360;9.738;2023-02-25T17:18:53;1.40;77.60
7606;DHT22;3844;53.360;9.738;2023-02-25T17:21:06;1.30;77.80
7606;DHT22;3844;53.360;9.738;2023-02-25T17:23:11;1.30;78.30
7606;DHT22;3844;53.360;9.738;2023-02-25T17:25:14;1.30;77.80
7606;DHT22;3844;53.360;9.738;2023-02-25T17:27:19;1.30;77.80
7606;DHT22;3844;53.360;9.738;2023-02-25T17:29:35;1.30;77.60
7606;DHT22;3844;53.360;9.738;2023-02-25T17:31:45;1.30;77.50
7606;DHT22;3844;53.360;9.738;2023-02-25T17:36:27;1.30;76.40
7606;DHT22;3844;53.360;9.738;2023-02-25T17:38:22;1.30;76.60
7606;DHT22;3844;53.360;9.738;2023-02-25T17:40:27;1.30;76.00
7606;DHT22;3844;53.360;9.738;2023-02-25T17:42:34;1.30;76.00
7606;DHT22;3844;53.360;9.738;2023-02-25T17:46:40;1.30;75.30
7606;DHT22;3844;53.360;9.738;2023-02-25T17:48:53;1.40;75.40
7606;DHT22;3844;53.360;9.738;2023-02-25T17:51:00;1.40;75.10
7606;DHT22;3844;53.360;9.738;2023-02-25T17:55:06;1.40;75.10
7606;DHT22;3844;53.360;9.738;2023-02-25T17:57:21;1.30;75.20
7606;DHT22;3844;53.360;9.738;2023-02-25T17:59:41;1.30;75.40
7606;DHT22;3844;53.360;9.738;2023-02-25T18:01:55;1.20;75.90
7606;DHT22;3844;53.360;9.738;2023-02-25T18:03:57;1.20;76.00
7606;DHT22;3844;53.360;9.738;2023-02-25T18:12:33;1.00;76.70
7606;DHT22;3844;53.360;9.738;2023-02-25T18:14:42;1.00;76.80
7606;DHT22;3844;53.360;9.738;2023-02-25T18:16:45;0.90;76.70
7606;DHT22;3844;53.360;9.738;2023-02-25T18:18:49;0.80;77.20